createdAt,value
2019-02-28T00:00:44.312Z,53.03
2019-02-28T00:01:46.457Z,53.24
2019-02-28T00:02:44.289Z,52.70
2019-02-28T00:03:44.256Z,52.91
2019-02-28T00:04:44.261Z,53.24
2019-02-28T00:05:44.235Z,52.73
2019-02-28T00:06:45.154Z,53.03
2019-02-28T00:07:44.229Z,53.24
2019-02-28T00:08:44.210Z,52.62
2019-02-28T00:09:44.191Z,52.73
2019-02-28T00:10:44.200Z,53.03
2019-02-28T00:11:44.174Z,53.37
2019-02-28T00:12:45.220Z,53.45
2019-02-28T00:13:44.151Z,53.24
2019-02-28T00:14:45.555Z,53.14
2019-02-28T00:15:44.160Z,53.55
2019-02-28T00:16:44.131Z,53.86
2019-02-28T00:17:44.114Z,54.06
2019-02-28T00:18:44.107Z,53.86
2019-02-28T00:19:44.089Z,53.96
2019-02-28T00:20:44.159Z,53.99
2019-02-28T00:21:44.075Z,53.68
2019-02-28T00:22:48.348Z,53.89
2019-02-28T00:23:45.063Z,54.09
2019-02-28T00:24:44.048Z,54.30
2019-02-28T00:25:44.038Z,53.58
2019-02-28T00:26:47.652Z,54.09
2019-02-28T00:27:43.996Z,53.89
2019-02-28T00:28:43.986Z,53.60
2019-02-28T00:29:43.982Z,54.12
2019-02-28T00:30:43.987Z,54.02
2019-02-28T00:31:49.518Z,54.63
2019-02-28T00:32:44.943Z,54.02
2019-02-28T00:33:43.944Z,54.02
2019-02-28T00:34:43.920Z,54.19
2019-02-28T00:35:44.681Z,53.70
2019-02-28T00:36:43.914Z,53.68
2019-02-28T00:37:43.895Z,53.81
2019-02-28T00:38:43.900Z,53.91
2019-02-28T00:39:43.873Z,54.02
2019-02-28T00:40:43.869Z,54.12
2019-02-28T00:41:44.714Z,54.12
2019-02-28T00:42:43.842Z,53.99
2019-02-28T00:43:43.828Z,53.60
2019-02-28T00:44:43.833Z,53.60
2019-02-28T00:45:43.819Z,53.60
2019-02-28T00:46:45.001Z,54.02
2019-02-28T00:47:43.795Z,53.60
2019-02-28T00:48:43.775Z,54.43
2019-02-28T00:49:43.764Z,54.84
2019-02-28T00:50:43.765Z,54.84
2019-02-28T00:51:43.748Z,54.63
2019-02-28T00:52:43.755Z,54.94
2019-02-28T00:53:43.723Z,54.55
2019-02-28T00:54:44.536Z,54.45
2019-02-28T00:55:45.954Z,55.28
2019-02-28T00:56:43.701Z,54.45
2019-02-28T00:57:43.684Z,54.66
2019-02-28T00:58:43.694Z,54.86
2019-02-28T00:59:43.672Z,54.86
2019-02-28T01:00:43.656Z,54.66
2019-02-28T01:01:46.032Z,54.66
2019-02-28T01:02:43.628Z,54.68
2019-02-28T01:03:43.619Z,55.07
2019-02-28T01:04:43.608Z,55.10
2019-02-28T01:05:43.605Z,54.89
2019-02-28T01:06:43.605Z,54.97
2019-02-28T01:07:43.586Z,55.07
2019-02-28T01:08:43.564Z,55.10
2019-02-28T01:09:43.557Z,55.10
2019-02-28T01:10:43.558Z,54.89
2019-02-28T01:11:44.949Z,55.93
2019-02-28T01:12:43.525Z,55.10
2019-02-28T01:13:43.517Z,55.41
2019-02-28T01:14:43.515Z,55.72
2019-02-28T01:15:45.040Z,55.51
2019-02-28T01:16:43.490Z,56.13
2019-02-28T01:17:43.473Z,56.03
2019-02-28T01:18:43.467Z,55.62
2019-02-28T01:19:43.501Z,55.62
2019-02-28T01:20:43.446Z,55.93
2019-02-28T01:21:43.463Z,55.64
2019-02-28T01:22:43.430Z,56.26
2019-02-28T01:23:43.408Z,56.26
2019-02-28T01:24:43.426Z,56.16
2019-02-28T01:25:43.387Z,55.74
2019-02-28T01:26:46.628Z,56.24
2019-02-28T01:27:43.368Z,55.95
2019-02-28T01:28:43.357Z,56.05
2019-02-28T01:29:43.348Z,56.16
2019-02-28T01:30:43.338Z,56.47
2019-02-28T01:31:43.482Z,56.05
2019-02-28T01:32:43.313Z,56.88
2019-02-28T01:33:43.305Z,57.09
2019-02-28T01:34:43.298Z,56.88
2019-02-28T01:35:43.290Z,56.60
2019-02-28T01:36:45.954Z,56.98
2019-02-28T01:37:44.266Z,57.53
2019-02-28T01:38:43.254Z,57.84
2019-02-28T01:39:43.241Z,57.84
2019-02-28T01:40:43.248Z,57.84
2019-02-28T01:41:45.159Z,57.84
2019-02-28T01:42:43.223Z,57.84
2019-02-28T01:43:43.209Z,57.84
2019-02-28T01:44:43.194Z,58.15
2019-02-28T01:45:44.216Z,58.36
2019-02-28T01:46:43.187Z,58.36
2019-02-28T01:47:43.159Z,58.56
2019-02-28T01:48:43.147Z,58.56
2019-02-28T01:49:43.140Z,58.67
2019-02-28T01:50:43.128Z,58.56
2019-02-28T01:51:43.130Z,58.36
2019-02-28T01:52:45.657Z,59.08
2019-02-28T01:53:43.095Z,59.60
2019-02-28T01:54:43.084Z,59.08
2019-02-28T01:55:43.082Z,59.39
2019-02-28T01:56:43.064Z,59.83
2019-02-28T01:57:44.384Z,60.11
2019-02-28T01:58:43.043Z,60.32
2019-02-28T01:59:43.033Z,60.35
2019-02-28T02:00:43.039Z,59.80
2019-02-28T02:01:43.013Z,59.83
2019-02-28T02:02:43.034Z,60.42
2019-02-28T02:03:42.993Z,60.42
2019-02-28T02:04:43.199Z,60.53
2019-02-28T02:05:42.967Z,60.35
2019-02-28T02:06:42.971Z,60.87
2019-02-28T02:07:42.965Z,60.66
2019-02-28T02:08:42.944Z,60.14
2019-02-28T02:09:46.095Z,60.35
2019-02-28T02:10:42.931Z,60.01
2019-02-28T02:11:42.911Z,60.46
2019-02-28T02:12:42.906Z,60.35
2019-02-28T02:13:42.891Z,60.35
2019-02-28T02:14:45.663Z,60.46
2019-02-28T02:15:42.869Z,60.46
2019-02-28T02:16:42.852Z,60.35
2019-02-28T02:17:42.859Z,60.25
2019-02-28T02:18:43.410Z,60.25
2019-02-28T02:19:42.821Z,60.77
2019-02-28T02:20:42.814Z,60.35
2019-02-28T02:21:42.814Z,60.35
2019-02-28T02:22:44.589Z,60.25
2019-02-28T02:23:42.807Z,60.35
2019-02-28T02:24:42.786Z,60.35
2019-02-28T02:25:42.770Z,60.69
2019-02-28T02:26:45.168Z,61.18
2019-02-28T02:27:42.753Z,61.21
2019-02-28T02:28:42.735Z,61.31
2019-02-28T02:29:42.726Z,61.21
2019-02-28T02:30:42.735Z,61.52
2019-02-28T02:31:43.682Z,61.72
2019-02-28T02:32:42.704Z,61.83
2019-02-28T02:33:42.678Z,61.41
2019-02-28T02:34:42.667Z,61.21
2019-02-28T02:35:43.645Z,61.24
2019-02-28T02:36:42.671Z,61.93
2019-02-28T02:37:42.653Z,61.55
2019-02-28T02:38:42.632Z,60.69
2019-02-28T02:39:42.620Z,61.93
2019-02-28T02:40:42.609Z,61.55
2019-02-28T02:41:42.593Z,61.83
2019-02-28T02:42:47.837Z,61.52
2019-02-28T02:43:43.646Z,61.10
2019-02-28T02:44:42.590Z,61.41
2019-02-28T02:45:43.854Z,61.62
2019-02-28T02:46:42.564Z,61.24
2019-02-28T02:47:42.544Z,61.10
2019-02-28T02:48:43.334Z,61.21
2019-02-28T02:49:42.513Z,61.72
2019-02-28T02:50:42.499Z,61.41
2019-02-28T02:51:49.124Z,61.00
2019-02-28T02:52:43.485Z,62.14
2019-02-28T02:53:43.322Z,61.96
2019-02-28T02:54:42.458Z,62.16
2019-02-28T02:55:42.446Z,62.06
2019-02-28T02:56:42.478Z,62.48
2019-02-28T02:57:42.472Z,62.37
2019-02-28T02:58:42.422Z,62.37
2019-02-28T02:59:42.435Z,62.58
2019-02-28T03:00:49.753Z,62.37
2019-02-28T03:01:43.379Z,62.48
2019-02-28T03:02:42.388Z,62.27
2019-02-28T03:03:44.227Z,62.68
2019-02-28T03:04:42.379Z,62.79
2019-02-28T03:05:42.338Z,62.37
2019-02-28T03:06:45.966Z,62.89
2019-02-28T03:07:42.326Z,62.58
2019-02-28T03:08:42.322Z,62.48
2019-02-28T03:09:43.368Z,62.99
2019-02-28T03:10:42.285Z,62.58
2019-02-28T03:11:42.275Z,61.76
2019-02-28T03:12:42.266Z,62.48
2019-02-28T03:13:44.055Z,62.58
2019-02-28T03:14:42.262Z,62.40
2019-02-28T03:15:42.234Z,62.58
2019-02-28T03:16:42.230Z,62.79
2019-02-28T03:17:46.459Z,62.51
2019-02-28T03:18:43.212Z,63.23
2019-02-28T03:19:42.207Z,62.51
2019-02-28T03:20:42.566Z,62.92
2019-02-28T03:21:42.173Z,63.13
2019-02-28T03:22:42.175Z,63.13
2019-02-28T03:23:42.156Z,63.02
2019-02-28T03:24:42.148Z,62.61
2019-02-28T03:25:42.130Z,62.51
2019-02-28T03:26:43.344Z,62.61
2019-02-28T03:27:42.107Z,62.19
2019-02-28T03:28:42.100Z,61.88
2019-02-28T03:29:43.753Z,62.40
2019-02-28T03:30:42.084Z,62.40
2019-02-28T03:31:42.080Z,62.19
2019-02-28T03:32:42.841Z,62.23
2019-02-28T03:33:42.050Z,62.54
2019-02-28T03:34:55.415Z,62.43
2019-02-28T03:35:44.159Z,62.54
2019-02-28T03:36:42.038Z,62.43
2019-02-28T03:37:42.019Z,62.54
2019-02-28T03:38:48.197Z,62.74
2019-02-28T03:39:42.980Z,62.95
2019-02-28T03:40:41.981Z,63.89
2019-02-28T03:41:41.960Z,63.78
2019-02-28T03:42:42.026Z,63.26
2019-02-28T03:43:43.944Z,63.78
2019-02-28T03:44:41.940Z,64.02
2019-02-28T03:45:41.939Z,63.99
2019-02-28T03:46:46.462Z,63.26
2019-02-28T03:47:42.903Z,63.37
2019-02-28T03:48:41.914Z,63.19
2019-02-28T03:49:48.504Z,63.16
2019-02-28T03:50:42.880Z,63.29
2019-02-28T03:51:41.858Z,63.60
2019-02-28T03:52:44.326Z,63.92
2019-02-28T03:53:41.848Z,64.12
2019-02-28T03:54:41.831Z,64.02
2019-02-28T03:55:41.810Z,63.81
2019-02-28T03:56:41.803Z,63.50
2019-02-28T03:57:41.805Z,63.71
2019-02-28T03:58:43.051Z,63.81
2019-02-28T03:59:41.775Z,63.71
2019-02-28T04:00:41.768Z,63.60
2019-02-28T04:01:45.691Z,63.50
2019-02-28T04:02:41.746Z,63.92
2019-02-28T04:03:41.741Z,63.60
2019-02-28T04:04:48.824Z,63.71
2019-02-28T04:05:42.780Z,63.92
2019-02-28T04:06:41.724Z,63.92
2019-02-28T04:07:41.699Z,64.12
2019-02-28T04:08:41.709Z,63.50
2019-02-28T04:09:44.130Z,63.81
2019-02-28T04:10:41.667Z,63.84
2019-02-28T04:11:41.666Z,63.71
2019-02-28T04:12:45.668Z,63.92
2019-02-28T04:13:42.655Z,63.84
2019-02-28T04:14:41.629Z,64.36
2019-02-28T04:15:49.567Z,64.36
2019-02-28T04:16:42.614Z,64.25
2019-02-28T04:17:41.602Z,64.67
2019-02-28T04:18:45.904Z,64.56
2019-02-28T04:19:42.562Z,64.67
2019-02-28T04:20:41.577Z,64.67
2019-02-28T04:21:46.199Z,64.67
2019-02-28T04:22:42.532Z,64.46
2019-02-28T04:23:41.547Z,64.67
2019-02-28T04:24:46.378Z,64.56
2019-02-28T04:25:42.507Z,64.46
2019-02-28T04:26:41.498Z,64.46
2019-02-28T04:27:41.827Z,64.67
2019-02-28T04:28:41.505Z,64.67
2019-02-28T04:29:41.462Z,64.87
2019-02-28T04:30:43.851Z,64.77
2019-02-28T04:31:41.487Z,64.56
2019-02-28T04:32:41.426Z,64.46
2019-02-28T04:33:41.428Z,65.29
2019-02-28T04:34:41.425Z,64.56
2019-02-28T04:35:41.409Z,64.56
2019-02-28T04:36:41.382Z,64.87
2019-02-28T04:37:46.902Z,64.46
2019-02-28T04:38:42.392Z,64.67
2019-02-28T04:39:41.351Z,64.04
2019-02-28T04:40:41.354Z,64.80
2019-02-28T04:41:41.385Z,64.70
2019-02-28T04:42:41.325Z,64.49
2019-02-28T04:43:41.625Z,64.80
2019-02-28T04:44:41.325Z,64.59
2019-02-28T04:45:41.290Z,65.29
2019-02-28T04:46:41.281Z,66.25
2019-02-28T04:47:41.649Z,66.25
2019-02-28T04:48:41.273Z,66.12
2019-02-28T04:49:41.267Z,66.25
2019-02-28T04:50:41.249Z,66.36
2019-02-28T04:51:41.252Z,66.05
2019-02-28T04:52:46.737Z,66.02
2019-02-28T04:53:42.205Z,66.33
2019-02-28T04:54:41.250Z,66.25
2019-02-28T04:55:41.184Z,65.73
2019-02-28T04:56:42.254Z,66.12
2019-02-28T04:57:41.163Z,66.88
2019-02-28T04:58:41.164Z,66.67
2019-02-28T04:59:41.213Z,66.67
2019-02-28T05:00:41.131Z,66.47
2019-02-28T05:01:41.123Z,65.84
2019-02-28T05:02:41.116Z,66.02
2019-02-28T05:03:41.160Z,66.22
2019-02-28T05:04:41.102Z,66.54
2019-02-28T05:05:41.093Z,66.36
2019-02-28T05:06:41.067Z,66.88
2019-02-28T05:07:41.068Z,66.99
2019-02-28T05:08:41.081Z,66.57
2019-02-28T05:09:41.073Z,66.15
2019-02-28T05:10:41.026Z,66.25
2019-02-28T05:11:41.014Z,65.94
2019-02-28T05:12:41.272Z,66.05
2019-02-28T05:13:41.258Z,66.25
2019-02-28T05:14:41.013Z,65.94
2019-02-28T05:15:41.178Z,66.15
2019-02-28T05:16:47.226Z,66.57
2019-02-28T05:17:41.956Z,66.99
2019-02-28T05:18:40.941Z,66.57
2019-02-28T05:19:40.933Z,65.94
2019-02-28T05:20:45.130Z,66.57
2019-02-28T05:21:40.914Z,66.78
2019-02-28T05:22:40.917Z,66.57
2019-02-28T05:23:40.891Z,66.25
2019-02-28T05:24:42.582Z,66.57
2019-02-28T05:25:40.884Z,66.57
2019-02-28T05:26:40.877Z,66.36
2019-02-28T05:27:40.850Z,66.47
2019-02-28T05:28:41.394Z,66.67
2019-02-28T05:29:43.860Z,66.36
2019-02-28T05:30:41.573Z,65.97
2019-02-28T05:31:40.804Z,67.02
2019-02-28T05:32:40.806Z,67.12
2019-02-28T05:33:42.096Z,66.15
2019-02-28T05:34:40.877Z,66.78
2019-02-28T05:35:40.787Z,67.09
2019-02-28T05:36:40.755Z,66.47
2019-02-28T05:37:46.609Z,66.99
2019-02-28T05:38:41.804Z,66.88
2019-02-28T05:39:40.750Z,66.99
2019-02-28T05:40:41.500Z,66.15
2019-02-28T05:41:40.716Z,66.88
2019-02-28T05:42:40.697Z,67.02
2019-02-28T05:43:40.778Z,67.09
2019-02-28T05:44:40.975Z,66.67
2019-02-28T05:45:40.671Z,66.15
2019-02-28T05:46:40.670Z,67.02
2019-02-28T05:47:46.292Z,66.36
2019-02-28T05:48:41.626Z,66.57
2019-02-28T05:49:41.742Z,67.12
2019-02-28T05:50:40.621Z,66.81
2019-02-28T05:51:40.614Z,66.91
2019-02-28T05:52:40.612Z,66.91
2019-02-28T05:53:42.485Z,66.18
2019-02-28T05:54:40.574Z,66.91
2019-02-28T05:55:40.566Z,67.12
2019-02-28T05:56:40.545Z,67.02
2019-02-28T05:57:43.538Z,67.02
2019-02-28T05:58:40.581Z,67.02
2019-02-28T05:59:40.520Z,67.22
2019-02-28T06:00:40.516Z,66.91
2019-02-28T06:01:43.487Z,68.47
2019-02-28T06:02:41.514Z,66.39
2019-02-28T06:03:40.478Z,67.54
2019-02-28T06:04:40.479Z,66.81
2019-02-28T06:05:43.501Z,67.54
2019-02-28T06:06:41.439Z,67.33
2019-02-28T06:07:40.442Z,67.54
2019-02-28T06:08:40.424Z,67.33
2019-02-28T06:09:40.430Z,67.36
2019-02-28T06:10:40.458Z,67.77
2019-02-28T06:11:40.396Z,68.16
2019-02-28T06:12:43.747Z,68.26
2019-02-28T06:13:40.371Z,67.95
2019-02-28T06:14:40.364Z,67.74
2019-02-28T06:15:40.365Z,67.85
2019-02-28T06:16:40.364Z,68.05
2019-02-28T06:17:40.352Z,68.16
2019-02-28T06:18:40.319Z,68.08
2019-02-28T06:19:43.352Z,68.60
2019-02-28T06:20:40.307Z,68.78
2019-02-28T06:21:40.312Z,68.99
2019-02-28T06:22:40.276Z,69.71
2019-02-28T06:23:41.007Z,69.09
2019-02-28T06:24:40.254Z,68.47
2019-02-28T06:25:40.263Z,68.99
2019-02-28T06:26:40.254Z,68.99
2019-02-28T06:27:41.935Z,68.47
2019-02-28T06:28:40.219Z,68.57
2019-02-28T06:29:40.206Z,68.68
2019-02-28T06:30:41.389Z,68.26
2019-02-28T06:31:40.230Z,68.16
2019-02-28T06:32:40.176Z,68.47
2019-02-28T06:33:40.173Z,68.26
2019-02-28T06:34:42.285Z,68.26
2019-02-28T06:35:40.153Z,68.37
2019-02-28T06:36:40.137Z,68.26
2019-02-28T06:37:40.124Z,68.68
2019-02-28T06:38:40.113Z,68.78
2019-02-28T06:39:40.093Z,68.33
2019-02-28T06:40:40.097Z,68.47
2019-02-28T06:41:40.879Z,68.57
2019-02-28T06:42:40.063Z,68.16
2019-02-28T06:43:40.067Z,68.78
2019-02-28T06:44:40.071Z,68.57
2019-02-28T06:45:40.034Z,68.99
2019-02-28T06:46:40.809Z,68.47
2019-02-28T06:47:40.045Z,68.88
2019-02-28T06:48:40.009Z,68.78
2019-02-28T06:49:41.802Z,68.57
2019-02-28T06:50:39.977Z,69.71
2019-02-28T06:51:39.981Z,69.71
2019-02-28T06:52:39.992Z,69.20
2019-02-28T06:53:39.951Z,68.88
2019-02-28T06:54:41.077Z,69.30
2019-02-28T06:55:39.995Z,69.92
2019-02-28T06:56:39.927Z,69.61
2019-02-28T06:57:39.910Z,69.09
2019-02-28T06:58:39.914Z,69.37
2019-02-28T06:59:39.914Z,69.09
2019-02-28T07:00:39.874Z,69.09
2019-02-28T07:01:39.875Z,68.78
2019-02-28T07:02:39.852Z,69.71
2019-02-28T07:03:39.924Z,69.20
2019-02-28T07:04:39.850Z,69.58
2019-02-28T07:05:39.823Z,69.79
2019-02-28T07:06:39.823Z,70.10
2019-02-28T07:07:39.799Z,70.00
2019-02-28T07:08:39.789Z,69.89
2019-02-28T07:09:39.801Z,69.89
2019-02-28T07:10:41.533Z,70.41
2019-02-28T07:11:39.771Z,70.00
2019-02-28T07:12:39.749Z,70.62
2019-02-28T07:13:40.220Z,70.51
2019-02-28T07:14:39.727Z,70.41
2019-02-28T07:15:39.723Z,70.51
2019-02-28T07:16:39.737Z,70.48
2019-02-28T07:17:42.699Z,70.38
2019-02-28T07:18:40.693Z,70.07
2019-02-28T07:19:39.676Z,69.76
2019-02-28T07:20:39.674Z,69.65
2019-02-28T07:21:43.237Z,70.48
2019-02-28T07:22:40.145Z,70.28
2019-02-28T07:23:39.633Z,69.55
2019-02-28T07:24:39.638Z,70.07
2019-02-28T07:25:39.613Z,70.90
2019-02-28T07:26:39.621Z,70.17
2019-02-28T07:27:39.592Z,70.79
2019-02-28T07:28:39.581Z,70.56
2019-02-28T07:29:42.702Z,70.45
2019-02-28T07:30:39.570Z,70.45
2019-02-28T07:31:39.590Z,70.04
2019-02-28T07:32:39.544Z,70.35
2019-02-28T07:33:41.280Z,70.04
2019-02-28T07:34:39.539Z,70.45
2019-02-28T07:35:39.528Z,70.04
2019-02-28T07:36:41.509Z,69.52
2019-02-28T07:37:40.488Z,70.45
2019-02-28T07:38:39.476Z,71.45
2019-02-28T07:39:40.441Z,70.83
2019-02-28T07:40:39.459Z,70.62
2019-02-28T07:41:41.387Z,70.73
2019-02-28T07:42:39.461Z,70.00
2019-02-28T07:43:39.427Z,70.52
2019-02-28T07:44:39.417Z,69.35
2019-02-28T07:45:39.412Z,69.45
2019-02-28T07:46:42.602Z,69.45
2019-02-28T07:47:39.405Z,70.07
2019-02-28T07:48:39.371Z,69.76
2019-02-28T07:49:39.391Z,69.24
2019-02-28T07:50:39.349Z,69.45
2019-02-28T07:51:39.351Z,69.14
2019-02-28T07:52:39.346Z,69.63
2019-02-28T07:53:40.972Z,69.94
2019-02-28T07:54:39.309Z,69.73
2019-02-28T07:55:39.298Z,69.94
2019-02-28T07:56:43.189Z,69.84
2019-02-28T07:57:39.294Z,70.01
2019-02-28T07:58:39.266Z,69.60
2019-02-28T07:59:42.369Z,69.49
2019-02-28T08:00:39.248Z,69.49
2019-02-28T08:01:39.232Z,69.70
2019-02-28T08:02:39.903Z,69.29
2019-02-28T08:03:39.214Z,68.66
2019-02-28T08:04:39.201Z,68.87
2019-02-28T08:05:39.196Z,68.94
2019-02-28T08:06:40.364Z,69.56
2019-02-28T08:07:39.181Z,69.25
2019-02-28T08:08:39.165Z,69.46
2019-02-28T08:09:40.640Z,69.43
2019-02-28T08:10:39.137Z,69.53
2019-02-28T08:11:39.143Z,69.12
2019-02-28T08:12:39.140Z,69.01
2019-02-28T08:13:39.108Z,68.77
2019-02-28T08:14:39.104Z,68.98
2019-02-28T08:15:39.087Z,68.57
2019-02-28T08:16:39.076Z,68.43
2019-02-28T08:17:40.649Z,68.26
2019-02-28T08:18:39.055Z,67.95
2019-02-28T08:19:39.046Z,67.71
2019-02-28T08:20:39.038Z,67.19
2019-02-28T08:21:43.931Z,66.36
2019-02-28T08:22:40.033Z,66.44
2019-02-28T08:23:39.005Z,66.44
2019-02-28T08:24:39.008Z,66.75
2019-02-28T08:25:39.671Z,66.54
2019-02-28T08:26:38.971Z,66.44
2019-02-28T08:27:38.959Z,66.30
2019-02-28T08:28:38.974Z,66.51
2019-02-28T08:29:38.943Z,66.72
2019-02-28T08:30:38.928Z,66.58
2019-02-28T08:31:38.922Z,66.69
2019-02-28T08:32:42.390Z,65.86
2019-02-28T08:33:38.908Z,65.62
2019-02-28T08:34:38.888Z,64.04
2019-02-28T08:35:38.877Z,64.39
2019-02-28T08:36:38.865Z,64.25
2019-02-28T08:37:38.857Z,63.74
2019-02-28T08:38:38.851Z,63.29
2019-02-28T08:39:41.148Z,62.57
2019-02-28T08:40:38.825Z,62.24
2019-02-28T08:41:38.816Z,61.41
2019-02-28T08:42:39.769Z,61.52
2019-02-28T08:43:38.804Z,61.41
2019-02-28T08:44:38.781Z,60.97
2019-02-28T08:45:38.774Z,61.59
2019-02-28T08:46:38.767Z,60.77
2019-02-28T08:47:38.753Z,61.59
2019-02-28T08:48:38.752Z,61.38
2019-02-28T08:49:44.601Z,60.84
2019-02-28T08:50:39.728Z,61.77
2019-02-28T08:51:38.709Z,60.63
2019-02-28T08:52:41.004Z,61.22
2019-02-28T08:53:38.699Z,60.61
2019-02-28T08:54:38.678Z,59.58
2019-02-28T08:55:40.540Z,60.09
2019-02-28T08:56:38.660Z,59.86
2019-02-28T08:57:38.660Z,60.17
2019-02-28T08:58:38.645Z,60.06
2019-02-28T08:59:38.625Z,59.96
2019-02-28T09:00:38.611Z,60.17
2019-02-28T09:01:41.316Z,60.06
2019-02-28T09:02:38.602Z,59.73
2019-02-28T09:03:40.554Z,59.93
2019-02-28T09:04:41.201Z,59.93
2019-02-28T09:05:38.564Z,60.03
2019-02-28T09:06:41.074Z,60.03
2019-02-28T09:07:38.537Z,59.83
2019-02-28T09:08:38.551Z,59.93
2019-02-28T09:09:38.514Z,60.03
2019-02-28T09:10:38.517Z,60.01
2019-02-28T09:11:38.497Z,59.83
2019-02-28T09:12:38.485Z,59.39
2019-02-28T09:13:39.940Z,59.39
2019-02-28T09:14:38.463Z,58.85
2019-02-28T09:15:38.456Z,59.26
2019-02-28T09:16:39.753Z,59.34
2019-02-28T09:17:38.428Z,58.92
2019-02-28T09:18:38.448Z,58.92
2019-02-28T09:19:38.420Z,58.83
2019-02-28T09:20:41.323Z,58.83
2019-02-28T09:21:41.204Z,57.79
2019-02-28T09:22:38.376Z,57.77
2019-02-28T09:23:38.498Z,58.07
2019-02-28T09:24:38.372Z,58.07
2019-02-28T09:25:38.344Z,57.87
2019-02-28T09:26:38.333Z,57.43
2019-02-28T09:27:38.890Z,57.03
2019-02-28T09:28:38.313Z,57.03
2019-02-28T09:29:38.314Z,57.03
2019-02-28T09:30:38.292Z,56.18
2019-02-28T09:31:39.049Z,57.38
2019-02-28T09:32:38.271Z,57.69
2019-02-28T09:33:38.258Z,57.76
2019-02-28T09:34:38.258Z,57.64
2019-02-28T09:35:38.238Z,57.92
2019-02-28T09:36:38.232Z,57.48
2019-02-28T09:37:38.216Z,56.84
2019-02-28T09:38:38.206Z,55.49
2019-02-28T09:39:38.205Z,55.05
2019-02-28T09:40:38.186Z,54.31
2019-02-28T09:41:40.150Z,54.21
2019-02-28T09:42:38.163Z,53.88
2019-02-28T09:43:38.153Z,54.28
2019-02-28T09:44:38.151Z,53.44
2019-02-28T09:45:39.852Z,53.55
2019-02-28T09:46:38.121Z,53.44
2019-02-28T09:47:38.115Z,53.34
2019-02-28T09:48:38.103Z,52.91
2019-02-28T09:49:38.102Z,53.22
2019-02-28T09:50:38.077Z,51.99
2019-02-28T09:51:38.069Z,52.20
2019-02-28T09:52:41.294Z,52.40
2019-02-28T09:53:38.044Z,51.99
2019-02-28T09:54:38.045Z,53.11
2019-02-28T09:55:39.824Z,53.01
2019-02-28T09:56:38.012Z,52.17
2019-02-28T09:57:38.019Z,52.27
2019-02-28T09:58:37.991Z,51.94
2019-02-28T09:59:38.682Z,50.72
2019-02-28T10:00:37.969Z,50.52
2019-02-28T10:01:37.966Z,49.88
2019-02-28T10:02:40.435Z,50.78
2019-02-28T10:03:38.937Z,49.76
2019-02-28T10:04:37.944Z,49.96
2019-02-28T10:05:38.823Z,50.14
2019-02-28T10:06:37.905Z,50.14
2019-02-28T10:07:37.897Z,49.40
2019-02-28T10:08:38.028Z,48.69
2019-02-28T10:09:40.472Z,49.91
2019-02-28T10:10:38.866Z,49.61
2019-02-28T10:11:37.852Z,49.79
2019-02-28T10:12:42.046Z,50.81
2019-02-28T10:13:37.834Z,49.99
2019-02-28T10:14:37.831Z,50.29
2019-02-28T10:15:38.611Z,50.09
2019-02-28T10:16:37.801Z,49.46
2019-02-28T10:17:37.789Z,49.36
2019-02-28T10:18:38.993Z,48.52
2019-02-28T10:19:45.431Z,49.74
2019-02-28T10:20:38.755Z,48.63
2019-02-28T10:21:39.615Z,47.61
2019-02-28T10:22:37.738Z,47.89
2019-02-28T10:23:37.722Z,47.59
2019-02-28T10:24:37.723Z,46.98
2019-02-28T10:25:43.266Z,46.86
2019-02-28T10:26:38.693Z,46.43
2019-02-28T10:27:37.687Z,45.62
2019-02-28T10:28:37.670Z,45.92
2019-02-28T10:29:38.394Z,45.29
2019-02-28T10:30:37.651Z,45.57
2019-02-28T10:31:38.406Z,45.70
2019-02-28T10:32:40.360Z,45.17
2019-02-28T10:33:38.620Z,45.17
2019-02-28T10:34:37.609Z,44.36
2019-02-28T10:35:37.777Z,44.13
2019-02-28T10:36:37.582Z,44.56
2019-02-28T10:37:37.576Z,43.95
2019-02-28T10:38:37.561Z,43.63
2019-02-28T10:39:40.227Z,44.13
2019-02-28T10:40:38.544Z,43.93
2019-02-28T10:41:37.540Z,43.32
2019-02-28T10:42:40.246Z,43.12
2019-02-28T10:43:37.508Z,43.73
2019-02-28T10:44:37.496Z,43.43
2019-02-28T10:45:40.903Z,42.01
2019-02-28T10:46:37.475Z,42.60
2019-02-28T10:47:37.467Z,42.69
2019-02-28T10:48:41.797Z,42.90
2019-02-28T10:49:38.443Z,43.00
2019-02-28T10:50:37.446Z,42.68
2019-02-28T10:51:37.421Z,42.58
2019-02-28T10:52:37.413Z,43.29
2019-02-28T10:53:39.279Z,42.88
2019-02-28T10:54:37.392Z,43.69
2019-02-28T10:55:37.388Z,43.38
2019-02-28T10:56:39.075Z,43.08
2019-02-28T10:57:40.616Z,43.16
2019-02-28T10:58:37.347Z,43.26
2019-02-28T10:59:37.339Z,43.37
2019-02-28T11:00:37.337Z,43.37
2019-02-28T11:01:41.608Z,42.76
2019-02-28T11:02:37.304Z,42.54
2019-02-28T11:03:37.293Z,41.52
2019-02-28T11:04:42.882Z,42.21
2019-02-28T11:05:38.282Z,41.61
2019-02-28T11:06:37.266Z,41.39
2019-02-28T11:07:37.852Z,40.56
2019-02-28T11:08:37.240Z,39.73
2019-02-28T11:09:37.241Z,39.94
2019-02-28T11:10:37.237Z,39.11
2019-02-28T11:11:37.205Z,39.21
2019-02-28T11:12:37.197Z,39.51
2019-02-28T11:13:37.185Z,38.79
2019-02-28T11:14:38.664Z,39.39
2019-02-28T11:15:37.176Z,39.19
2019-02-28T11:16:37.156Z,38.79
2019-02-28T11:17:37.153Z,37.98
2019-02-28T11:18:37.131Z,38.39
2019-02-28T11:19:37.120Z,38.17
2019-02-28T11:20:37.161Z,38.57
2019-02-28T11:21:37.101Z,38.45
2019-02-28T11:22:39.895Z,38.05
2019-02-28T11:23:37.077Z,38.05
2019-02-28T11:24:37.068Z,38.45
2019-02-28T11:25:37.067Z,37.85
2019-02-28T11:26:37.044Z,36.33
2019-02-28T11:27:37.033Z,36.64
2019-02-28T11:28:37.023Z,36.55
2019-02-28T11:29:37.014Z,36.66
2019-02-28T11:30:37.014Z,36.86
2019-02-28T11:31:36.991Z,36.64
2019-02-28T11:32:36.979Z,36.33
2019-02-28T11:33:39.709Z,36.13
2019-02-28T11:34:36.960Z,36.04
2019-02-28T11:35:36.985Z,36.82
2019-02-28T11:36:36.939Z,35.82
2019-02-28T11:37:36.926Z,35.11
2019-02-28T11:38:36.915Z,34.49
2019-02-28T11:39:36.905Z,34.11
2019-02-28T11:40:36.918Z,34.09
2019-02-28T11:41:36.884Z,33.89
2019-02-28T11:42:36.880Z,34.19
2019-02-28T11:43:38.448Z,34.07
2019-02-28T11:44:36.850Z,33.97
2019-02-28T11:45:36.840Z,33.55
2019-02-28T11:46:36.834Z,32.76
2019-02-28T11:47:36.821Z,33.15
2019-02-28T11:48:36.807Z,32.35
2019-02-28T11:49:36.797Z,32.24
2019-02-28T11:50:41.151Z,32.24
2019-02-28T11:51:37.782Z,32.55
2019-02-28T11:52:36.765Z,32.03
2019-02-28T11:53:40.326Z,31.23
2019-02-28T11:54:36.744Z,32.12
2019-02-28T11:55:36.732Z,31.23
2019-02-28T11:56:36.734Z,32.72
2019-02-28T11:57:37.704Z,31.21
2019-02-28T11:58:36.703Z,31.31
2019-02-28T11:59:36.690Z,31.21
2019-02-28T12:00:36.805Z,31.12
2019-02-28T12:01:36.682Z,32.21
2019-02-28T12:02:36.659Z,31.21
2019-02-28T12:03:36.695Z,31.41
2019-02-28T12:04:37.466Z,31.51
2019-02-28T12:05:36.626Z,31.30
2019-02-28T12:06:36.630Z,31.48
2019-02-28T12:07:36.605Z,31.07
2019-02-28T12:08:36.596Z,30.18
2019-02-28T12:09:36.582Z,30.68
2019-02-28T12:10:36.573Z,30.98
2019-02-28T12:11:37.211Z,30.88
2019-02-28T12:12:36.550Z,29.86
2019-02-28T12:13:36.539Z,30.48
2019-02-28T12:14:36.528Z,30.44
2019-02-28T12:15:37.956Z,28.25
2019-02-28T12:16:36.517Z,27.24
2019-02-28T12:17:36.500Z,27.74
2019-02-28T12:18:39.742Z,25.57
2019-02-28T12:19:36.475Z,23.29
2019-02-28T12:20:36.464Z,21.03
2019-02-28T12:21:38.167Z,20.29
2019-02-28T12:22:36.443Z,18.98
2019-02-28T12:23:36.435Z,19.42
2019-02-28T12:24:36.421Z,21.04
2019-02-28T12:25:39.565Z,20.57
2019-02-28T12:26:37.412Z,21.00
2019-02-28T12:27:36.392Z,21.69
2019-02-28T12:28:38.410Z,22.08
2019-02-28T12:29:36.370Z,21.32
2019-02-28T12:30:36.358Z,18.05
2019-02-28T12:31:36.578Z,16.02
2019-02-28T12:32:36.338Z,14.98
2019-02-28T12:33:36.327Z,13.61
2019-02-28T12:34:36.318Z,13.97
2019-02-28T12:35:40.363Z,12.58
2019-02-28T12:36:36.309Z,12.86
2019-02-28T12:37:36.288Z,12.38
2019-02-28T12:38:36.275Z,13.07
2019-02-28T12:39:36.990Z,12.87
2019-02-28T12:40:36.259Z,12.97
2019-02-28T12:41:36.257Z,13.08
2019-02-28T12:42:36.235Z,12.40
2019-02-28T12:43:36.225Z,11.72
2019-02-28T12:44:36.241Z,12.89
2019-02-28T12:45:36.205Z,11.72
2019-02-28T12:46:36.206Z,11.63
2019-02-28T12:47:38.670Z,11.91
2019-02-28T12:48:37.178Z,11.51
2019-02-28T12:49:36.169Z,11.61
2019-02-28T12:50:36.155Z,11.69
2019-02-28T12:51:36.566Z,11.38
2019-02-28T12:52:36.138Z,12.18